sensor_id;sensor_type;location;lat;lon;timestamp;temperature;humidity
22996;DHT22;11664;49.774;8.650;2024-03-25T00:00:22;7.50;99.90
22996;DHT22;11664;49.774;8.650;2024-03-25T00:02:50;7.40;99.90
22996;DHT22;11664;49.774;8.650;2024-03-25T00:05:16;7.50;99.90
22996;DHT22;11664;49.774;8.650;2024-03-25T00:07:59;7.40;99.90
22996;DHT22;11664;49.774;8.650;2024-03-25T00:10:25;7.40;99.90
22996;DHT22;11664;49.774;8.650;2024-03-25T00:12:51;7.40;99.90
22996;DHT22;11664;49.774;8.650;2024-03-25T00:15:30;7.30;99.90
22996;DHT22;11664;49.774;8.650;2024-03-25T00:17:59;7.40;99.90
22996;DHT22;11664;49.774;8.650;2024-03-25T00:20:29;7.30;99.90
22996;DHT22;11664;49.774;8.650;2024-03-25T00:22:55;7.30;99.90
22996;DHT22;11664;49.774;8.650;2024-03-25T00:25:22;7.30;99.90
22996;DHT22;11664;49.774;8.650;2024-03-25T00:27:47;7.20;99.90
22996;DHT22;11664;49.774;8.650;2024-03-25T00:30:39;7.20;99.90
22996;DHT22;11664;49.774;8.650;2024-03-25T00:33:05;7.20;99.90
22996;DHT22;11664;49.774;8.650;2024-03-25T00:35:38;7.10;99.90
22996;DHT22;11664;49.774;8.650;2024-03-25T00:38:12;7.10;99.90
22996;DHT22;11664;49.774;8.650;2024-03-25T00:40:47;7.10;99.90
22996;DHT22;11664;49.774;8.650;2024-03-25T00:43:13;7.10;99.90
22996;DHT22;11664;49.774;8.650;2024-03-25T00:45:38;7.00;99.90
22996;DHT22;11664;49.774;8.650;2024-03-25T00:48:10;7.00;99.90
22996;DHT22;11664;49.774;8.650;2024-03-25T00:50:38;7.00;99.90
22996;DHT22;11664;49.774;8.650;2024-03-25T00:53:07;7.00;99.90
22996;DHT22;11664;49.774;8.650;2024-03-25T00:55:33;7.00;99.90
22996;DHT22;11664;49.774;8.650;2024-03-25T00:58:03;7.00;99.90
22996;DHT22;11664;49.774;8.650;2024-03-25T01:03:48;7.00;99.90
22996;DHT22;11664;49.774;8.650;2024-03-25T01:06:32;7.00;99.90
22996;DHT22;11664;49.774;8.650;2024-03-25T01:09:01;6.90;99.90
22996;DHT22;11664;49.774;8.650;2024-03-25T01:11:33;7.00;99.90
22996;DHT22;11664;49.774;8.650;2024-03-25T01:13:59;6.90;99.90
22996;DHT22;11664;49.774;8.650;2024-03-25T01:16:27;7.00;99.90
22996;DHT22;11664;49.774;8.650;2024-03-25T01:18:53;7.00;99.90
22996;DHT22;11664;49.774;8.650;2024-03-25T01:21:18;6.90;99.90
22996;DHT22;11664;49.774;8.650;2024-03-25T01:23:50;6.90;99.90
22996;DHT22;11664;49.774;8.650;2024-03-25T01:26:19;6.90;99.90
22996;DHT22;11664;49.774;8.650;2024-03-25T01:28:44;6.80;99.90
22996;DHT22;11664;49.774;8.650;2024-03-25T01:31:17;6.90;99.90
22996;DHT22;11664;49.774;8.650;2024-03-25T01:33:43;6.80;99.90
22996;DHT22;11664;49.774;8.650;2024-03-25T01:36:08;6.70;99.90
22996;DHT22;11664;49.774;8.650;2024-03-25T01:38:39;6.60;99.90
22996;DHT22;11664;49.774;8.650;2024-03-25T01:41:14;6.60;99.90
22996;DHT22;11664;49.774;8.650;2024-03-25T01:43:57;6.60;99.90
22996;DHT22;11664;49.774;8.650;2024-03-25T01:46:25;6.60;99.90
22996;DHT22;11664;49.774;8.650;2024-03-25T01:48:51;6.60;99.90
22996;DHT22;11664;49.774;8.650;2024-03-25T01:51:25;6.50;99.90
22996;DHT22;11664;49.774;8.650;2024-03-25T01:53:53;6.60;99.90
22996;DHT22;11664;49.774;8.650;2024-03-25T01:56:23;6.60;99.90
22996;DHT22;11664;49.774;8.650;2024-03-25T01:58:52;6.60;99.90
22996;DHT22;11664;49.774;8.650;2024-03-25T02:01:19;6.50;99.90
22996;DHT22;11664;49.774;8.650;2024-03-25T02:03:52;6.50;99.90
22996;DHT22;11664;49.774;8.650;2024-03-25T02:06:26;6.50;99.90
22996;DHT22;11664;49.774;8.650;2024-03-25T02:08:56;6.50;99.90
22996;DHT22;11664;49.774;8.650;2024-03-25T02:11:26;6.40;99.90
22996;DHT22;11664;49.774;8.650;2024-03-25T02:13:53;6.40;99.90
22996;DHT22;11664;49.774;8.650;2024-03-25T02:16:18;6.40;99.90
22996;DHT22;11664;49.774;8.650;2024-03-25T02:18:44;6.30;99.90
22996;DHT22;11664;49.774;8.650;2024-03-25T02:21:13;6.30;99.90
22996;DHT22;11664;49.774;8.650;2024-03-25T02:23:45;6.30;99.90
22996;DHT22;11664;49.774;8.650;2024-03-25T02:26:18;6.30;99.90
22996;DHT22;11664;49.774;8.650;2024-03-25T02:28:52;6.30;99.90
22996;DHT22;11664;49.774;8.650;2024-03-25T02:31:27;6.40;99.90
22996;DHT22;11664;49.774;8.650;2024-03-25T02:33:53;6.40;99.90
22996;DHT22;11664;49.774;8.650;2024-03-25T02:36:25;6.40;99.90
22996;DHT22;11664;49.774;8.650;2024-03-25T02:38:51;6.40;99.90
22996;DHT22;11664;49.774;8.650;2024-03-25T02:41:16;6.40;99.90
22996;DHT22;11664;49.774;8.650;2024-03-25T02:43:45;6.30;99.90
22996;DHT22;11664;49.774;8.650;2024-03-25T02:46:11;6.30;99.90
22996;DHT22;11664;49.774;8.650;2024-03-25T02:48:37;6.30;99.90
22996;DHT22;11664;49.774;8.650;2024-03-25T02:51:03;6.30;99.90
22996;DHT22;11664;49.774;8.650;2024-03-25T02:53:31;6.30;99.90
22996;DHT22;11664;49.774;8.650;2024-03-25T02:55:57;6.30;99.90
22996;DHT22;11664;49.774;8.650;2024-03-25T02:58:22;6.30;99.90
22996;DHT22;11664;49.774;8.650;2024-03-25T03:00:51;6.30;99.90
22996;DHT22;11664;49.774;8.650;2024-03-25T03:03:19;6.20;99.90
22996;DHT22;11664;49.774;8.650;2024-03-25T03:05:51;6.20;99.90
22996;DHT22;11664;49.774;8.650;2024-03-25T03:08:16;6.30;99.90
22996;DHT22;11664;49.774;8.650;2024-03-25T03:10:44;6.30;99.90
22996;DHT22;11664;49.774;8.650;2024-03-25T03:13:10;6.20;99.90
22996;DHT22;11664;49.774;8.650;2024-03-25T03:15:43;6.30;99.90
22996;DHT22;11664;49.774;8.650;2024-03-25T03:18:09;6.30;99.90
22996;DHT22;11664;49.774;8.650;2024-03-25T03:20:38;6.20;99.90
22996;DHT22;11664;49.774;8.650;2024-03-25T03:23:03;6.20;99.90
22996;DHT22;11664;49.774;8.650;2024-03-25T03:25:29;6.10;99.90
22996;DHT22;11664;49.774;8.650;2024-03-25T03:28:02;6.00;99.90
22996;DHT22;11664;49.774;8.650;2024-03-25T03:30:27;6.10;99.90
22996;DHT22;11664;49.774;8.650;2024-03-25T03:32:53;6.00;99.90
22996;DHT22;11664;49.774;8.650;2024-03-25T03:35:21;6.00;99.90
22996;DHT22;11664;49.774;8.650;2024-03-25T03:37:47;5.80;99.90
22996;DHT22;11664;49.774;8.650;2024-03-25T03:40:21;5.80;99.90
22996;DHT22;11664;49.774;8.650;2024-03-25T03:42:50;5.70;99.90
22996;DHT22;11664;49.774;8.650;2024-03-25T03:45:15;5.60;99.90
22996;DHT22;11664;49.774;8.650;2024-03-25T03:47:41;5.50;99.90
22996;DHT22;11664;49.774;8.650;2024-03-25T03:50:07;5.50;99.90
22996;DHT22;11664;49.774;8.650;2024-03-25T03:52:33;5.40;99.90
22996;DHT22;11664;49.774;8.650;2024-03-25T03:55:01;5.30;99.90
22996;DHT22;11664;49.774;8.650;2024-03-25T03:57:35;5.20;99.90
22996;DHT22;11664;49.774;8.650;2024-03-25T04:00:01;5.20;99.90
22996;DHT22;11664;49.774;8.650;2024-03-25T04:02:37;5.10;99.90
22996;DHT22;11664;49.774;8.650;2024-03-25T04:05:03;5.00;99.90
22996;DHT22;11664;49.774;8.650;2024-03-25T04:07:29;4.90;99.90
22996;DHT22;11664;49.774;8.650;2024-03-25T04:10:02;4.80;99.90
22996;DHT22;11664;49.774;8.650;2024-03-25T04:12:32;4.70;99.90
22996;DHT22;11664;49.774;8.650;2024-03-25T04:15:01;4.70;99.90
22996;DHT22;11664;49.774;8.650;2024-03-25T04:17:29;4.60;99.90
22996;DHT22;11664;49.774;8.650;2024-03-25T04:19:55;4.50;99.90
22996;DHT22;11664;49.774;8.650;2024-03-25T04:22:29;4.40;99.90
22996;DHT22;11664;49.774;8.650;2024-03-25T04:24:55;4.30;99.90
22996;DHT22;11664;49.774;8.650;2024-03-25T04:27:29;4.30;99.90
22996;DHT22;11664;49.774;8.650;2024-03-25T04:29:55;4.30;99.90
22996;DHT22;11664;49.774;8.650;2024-03-25T04:32:28;4.20;99.90
22996;DHT22;11664;49.774;8.650;2024-03-25T04:34:57;4.10;99.90
22996;DHT22;11664;49.774;8.650;2024-03-25T04:37:22;4.20;99.90
22996;DHT22;11664;49.774;8.650;2024-03-25T04:39:54;4.20;99.90
22996;DHT22;11664;49.774;8.650;2024-03-25T04:42:20;4.00;99.90
22996;DHT22;11664;49.774;8.650;2024-03-25T04:44:49;3.90;99.90
22996;DHT22;11664;49.774;8.650;2024-03-25T04:47:18;3.90;99.90
22996;DHT22;11664;49.774;8.650;2024-03-25T04:49:53;3.90;99.90
22996;DHT22;11664;49.774;8.650;2024-03-25T04:52:24;3.80;99.90
22996;DHT22;11664;49.774;8.650;2024-03-25T04:54:51;3.80;99.90
22996;DHT22;11664;49.774;8.650;2024-03-25T04:57:26;3.80;99.90
22996;DHT22;11664;49.774;8.650;2024-03-25T04:59:51;3.80;99.90
22996;DHT22;11664;49.774;8.650;2024-03-25T05:02:17;3.70;99.90
22996;DHT22;11664;49.774;8.650;2024-03-25T05:04:51;3.70;99.90
22996;DHT22;11664;49.774;8.650;2024-03-25T05:07:17;3.80;99.90
22996;DHT22;11664;49.774;8.650;2024-03-25T05:09:43;3.80;99.90
22996;DHT22;11664;49.774;8.650;2024-03-25T05:12:15;3.70;99.90
22996;DHT22;11664;49.774;8.650;2024-03-25T05:14:41;3.60;99.90
22996;DHT22;11664;49.774;8.650;2024-03-25T05:17:06;3.60;99.90
22996;DHT22;11664;49.774;8.650;2024-03-25T05:19:33;3.60;99.90
22996;DHT22;11664;49.774;8.650;2024-03-25T05:21:59;3.50;99.90
22996;DHT22;11664;49.774;8.650;2024-03-25T05:24:30;3.50;99.90
22996;DHT22;11664;49.774;8.650;2024-03-25T05:27:09;3.50;99.90
22996;DHT22;11664;49.774;8.650;2024-03-25T05:29:37;3.40;99.90
22996;DHT22;11664;49.774;8.650;2024-03-25T05:32:03;3.40;99.90
22996;DHT22;11664;49.774;8.650;2024-03-25T05:34:29;3.50;99.90
22996;DHT22;11664;49.774;8.650;2024-03-25T05:36:55;3.50;99.90
22996;DHT22;11664;49.774;8.650;2024-03-25T05:39:21;3.40;99.90
22996;DHT22;11664;49.774;8.650;2024-03-25T05:41:49;3.40;99.90
22996;DHT22;11664;49.774;8.650;2024-03-25T05:44:15;3.50;99.90
22996;DHT22;11664;49.774;8.650;2024-03-25T05:46:41;3.50;99.90
22996;DHT22;11664;49.774;8.650;2024-03-25T05:49:09;3.60;99.90
22996;DHT22;11664;49.774;8.650;2024-03-25T05:51:35;3.60;99.90
22996;DHT22;11664;49.774;8.650;2024-03-25T05:54:01;3.70;99.90
22996;DHT22;11664;49.774;8.650;2024-03-25T05:56:27;3.70;99.90
22996;DHT22;11664;49.774;8.650;2024-03-25T05:58:58;3.80;99.90
22996;DHT22;11664;49.774;8.650;2024-03-25T06:01:25;3.80;99.90
22996;DHT22;11664;49.774;8.650;2024-03-25T06:03:51;3.80;99.90
22996;DHT22;11664;49.774;8.650;2024-03-25T06:06:17;3.70;99.90
22996;DHT22;11664;49.774;8.650;2024-03-25T06:08:49;3.70;99.90
22996;DHT22;11664;49.774;8.650;2024-03-25T06:11:16;3.80;99.90
22996;DHT22;11664;49.774;8.650;2024-03-25T06:13:47;3.80;99.90
22996;DHT22;11664;49.774;8.650;2024-03-25T06:16:13;3.80;99.90
22996;DHT22;11664;49.774;8.650;2024-03-25T06:18:45;3.70;99.90
22996;DHT22;11664;49.774;8.650;2024-03-25T06:21:11;3.80;99.90
22996;DHT22;11664;49.774;8.650;2024-03-25T06:23:36;3.80;99.90
22996;DHT22;11664;49.774;8.650;2024-03-25T06:26:08;3.70;99.90
22996;DHT22;11664;49.774;8.650;2024-03-25T06:28:33;3.80;99.90
22996;DHT22;11664;49.774;8.650;2024-03-25T06:30:59;3.80;99.90
22996;DHT22;11664;49.774;8.650;2024-03-25T06:34:08;3.90;99.90
22996;DHT22;11664;49.774;8.650;2024-03-25T06:36:55;3.90;99.90
22996;DHT22;11664;49.774;8.650;2024-03-25T06:39:21;4.00;99.90
22996;DHT22;11664;49.774;8.650;2024-03-25T06:41:52;4.00;99.90
22996;DHT22;11664;49.774;8.650;2024-03-25T06:44:30;3.90;99.90
22996;DHT22;11664;49.774;8.650;2024-03-25T06:47:02;3.90;99.90
22996;DHT22;11664;49.774;8.650;2024-03-25T06:49:31;4.00;99.90
22996;DHT22;11664;49.774;8.650;2024-03-25T06:52:00;4.10;99.90
22996;DHT22;11664;49.774;8.650;2024-03-25T06:54:29;4.10;99.90
22996;DHT22;11664;49.774;8.650;2024-03-25T06:56:55;4.20;99.90
22996;DHT22;11664;49.774;8.650;2024-03-25T06:59:23;4.30;99.90
22996;DHT22;11664;49.774;8.650;2024-03-25T07:01:49;4.40;99.90
22996;DHT22;11664;49.774;8.650;2024-03-25T07:04:14;4.50;99.90
22996;DHT22;11664;49.774;8.650;2024-03-25T07:06:40;4.60;99.90
22996;DHT22;11664;49.774;8.650;2024-03-25T07:09:18;4.70;99.90
22996;DHT22;11664;49.774;8.650;2024-03-25T07:11:44;4.90;99.90
22996;DHT22;11664;49.774;8.650;2024-03-25T07:14:12;5.00;99.90
22996;DHT22;11664;49.774;8.650;2024-03-25T07:16:40;5.10;99.90
22996;DHT22;11664;49.774;8.650;2024-03-25T07:19:06;5.30;99.90
22996;DHT22;11664;49.774;8.650;2024-03-25T07:21:32;5.40;99.90
22996;DHT22;11664;49.774;8.650;2024-03-25T07:23:58;5.60;99.90
22996;DHT22;11664;49.774;8.650;2024-03-25T07:26:23;5.70;99.90
22996;DHT22;11664;49.774;8.650;2024-03-25T07:28:49;5.80;99.90
22996;DHT22;11664;49.774;8.650;2024-03-25T07:31:17;5.80;99.90
22996;DHT22;11664;49.774;8.650;2024-03-25T07:33:43;5.80;99.90
22996;DHT22;11664;49.774;8.650;2024-03-25T07:36:21;5.90;99.90
22996;DHT22;11664;49.774;8.650;2024-03-25T07:38:47;5.90;99.90
22996;DHT22;11664;49.774;8.650;2024-03-25T07:41:15;6.00;99.90
22996;DHT22;11664;49.774;8.650;2024-03-25T07:43:41;6.10;99.90
22996;DHT22;11664;49.774;8.650;2024-03-25T07:46:19;6.20;99.90
22996;DHT22;11664;49.774;8.650;2024-03-25T07:48:47;6.20;99.90
22996;DHT22;11664;49.774;8.650;2024-03-25T07:51:12;6.20;99.90
22996;DHT22;11664;49.774;8.650;2024-03-25T07:53:44;6.30;99.90
22996;DHT22;11664;49.774;8.650;2024-03-25T07:56:16;6.40;99.90
22996;DHT22;11664;49.774;8.650;2024-03-25T07:58:42;6.40;99.90
22996;DHT22;11664;49.774;8.650;2024-03-25T08:01:07;6.50;99.90
22996;DHT22;11664;49.774;8.650;2024-03-25T08:03:33;6.50;99.90
22996;DHT22;11664;49.774;8.650;2024-03-25T08:06:10;6.60;99.90
22996;DHT22;11664;49.774;8.650;2024-03-25T08:08:42;6.60;99.90
22996;DHT22;11664;49.774;8.650;2024-03-25T08:11:08;6.70;99.90
22996;DHT22;11664;49.774;8.650;2024-03-25T08:13:36;6.80;99.90
22996;DHT22;11664;49.774;8.650;2024-03-25T08:16:11;6.90;99.90
22996;DHT22;11664;49.774;8.650;2024-03-25T08:18:36;7.00;99.90
22996;DHT22;11664;49.774;8.650;2024-03-25T08:21:05;7.00;99.90
22996;DHT22;11664;49.774;8.650;2024-03-25T08:23:33;7.10;99.90
22996;DHT22;11664;49.774;8.650;2024-03-25T08:26:02;7.20;99.90
22996;DHT22;11664;49.774;8.650;2024-03-25T08:28:30;7.20;99.90
22996;DHT22;11664;49.774;8.650;2024-03-25T08:30:59;7.40;99.90
22996;DHT22;11664;49.774;8.650;2024-03-25T08:33:28;7.50;99.90
22996;DHT22;11664;49.774;8.650;2024-03-25T08:35:54;7.50;99.90
22996;DHT22;11664;49.774;8.650;2024-03-25T08:38:28;7.40;99.90
22996;DHT22;11664;49.774;8.650;2024-03-25T08:40:59;7.60;99.90
22996;DHT22;11664;49.774;8.650;2024-03-25T08:43:24;7.60;99.90
22996;DHT22;11664;49.774;8.650;2024-03-25T08:45:59;7.70;99.90
22996;DHT22;11664;49.774;8.650;2024-03-25T08:48:27;7.60;99.90
22996;DHT22;11664;49.774;8.650;2024-03-25T08:50:53;7.90;99.90
22996;DHT22;11664;49.774;8.650;2024-03-25T08:53:21;7.90;99.90
22996;DHT22;11664;49.774;8.650;2024-03-25T08:55:50;8.10;99.90
22996;DHT22;11664;49.774;8.650;2024-03-25T08:58:24;8.30;99.90
22996;DHT22;11664;49.774;8.650;2024-03-25T09:00:50;8.30;99.90
22996;DHT22;11664;49.774;8.650;2024-03-25T09:03:16;8.30;99.90
22996;DHT22;11664;49.774;8.650;2024-03-25T09:05:57;8.40;99.90
22996;DHT22;11664;49.774;8.650;2024-03-25T09:08:22;8.30;99.90
22996;DHT22;11664;49.774;8.650;2024-03-25T09:10:51;8.00;99.90
22996;DHT22;11664;49.774;8.650;2024-03-25T09:13:32;8.20;99.90
22996;DHT22;11664;49.774;8.650;2024-03-25T09:16:01;8.20;99.90
22996;DHT22;11664;49.774;8.650;2024-03-25T09:18:26;8.20;99.90
22996;DHT22;11664;49.774;8.650;2024-03-25T09:20:53;8.40;99.90
22996;DHT22;11664;49.774;8.650;2024-03-25T09:23:20;8.70;99.90
22996;DHT22;11664;49.774;8.650;2024-03-25T09:25:53;8.70;99.90
22996;DHT22;11664;49.774;8.650;2024-03-25T09:28:25;8.50;99.90
22996;DHT22;11664;49.774;8.650;2024-03-25T09:30:53;8.90;99.90
22996;DHT22;11664;49.774;8.650;2024-03-25T09:33:22;8.90;99.90
22996;DHT22;11664;49.774;8.650;2024-03-25T09:35:57;9.00;99.90
22996;DHT22;11664;49.774;8.650;2024-03-25T09:38:22;8.80;99.90
22996;DHT22;11664;49.774;8.650;2024-03-25T09:41:03;8.80;99.90
22996;DHT22;11664;49.774;8.650;2024-03-25T09:43:54;8.80;99.90
22996;DHT22;11664;49.774;8.650;2024-03-25T09:46:21;9.00;99.90
22996;DHT22;11664;49.774;8.650;2024-03-25T09:48:48;9.20;99.90
22996;DHT22;11664;49.774;8.650;2024-03-25T09:51:19;9.00;99.90
22996;DHT22;11664;49.774;8.650;2024-03-25T09:54:04;9.10;99.90
22996;DHT22;11664;49.774;8.650;2024-03-25T09:56:30;9.10;99.90
22996;DHT22;11664;49.774;8.650;2024-03-25T09:58:59;9.00;99.90
22996;DHT22;11664;49.774;8.650;2024-03-25T10:01:37;9.10;99.90
22996;DHT22;11664;49.774;8.650;2024-03-25T10:04:02;9.20;99.90
22996;DHT22;11664;49.774;8.650;2024-03-25T10:06:34;9.30;99.90
22996;DHT22;11664;49.774;8.650;2024-03-25T10:08:59;9.70;99.90
22996;DHT22;11664;49.774;8.650;2024-03-25T10:11:27;9.40;99.90
22996;DHT22;11664;49.774;8.650;2024-03-25T10:13:56;9.30;99.90
22996;DHT22;11664;49.774;8.650;2024-03-25T10:16:22;9.60;99.90
22996;DHT22;11664;49.774;8.650;2024-03-25T10:18:47;9.90;99.90
22996;DHT22;11664;49.774;8.650;2024-03-25T10:21:18;10.00;99.90
22996;DHT22;11664;49.774;8.650;2024-03-25T10:23:44;10.20;99.90
22996;DHT22;11664;49.774;8.650;2024-03-25T10:26:10;10.20;99.90
22996;DHT22;11664;49.774;8.650;2024-03-25T10:28:35;10.10;99.90
22996;DHT22;11664;49.774;8.650;2024-03-25T10:31:07;9.90;99.90
22996;DHT22;11664;49.774;8.650;2024-03-25T10:33:33;10.00;99.90
22996;DHT22;11664;49.774;8.650;2024-03-25T10:36:05;10.10;99.90
22996;DHT22;11664;49.774;8.650;2024-03-25T10:38:35;10.10;99.90
22996;DHT22;11664;49.774;8.650;2024-03-25T10:41:08;10.50;99.90
22996;DHT22;11664;49.774;8.650;2024-03-25T10:43:34;10.00;99.90
22996;DHT22;11664;49.774;8.650;2024-03-25T10:46:00;10.60;99.90
22996;DHT22;11664;49.774;8.650;2024-03-25T10:48:35;10.60;99.90
22996;DHT22;11664;49.774;8.650;2024-03-25T10:51:05;10.30;99.90
22996;DHT22;11664;49.774;8.650;2024-03-25T10:53:36;10.30;99.90
22996;DHT22;11664;49.774;8.650;2024-03-25T10:56:12;10.10;99.90
22996;DHT22;11664;49.774;8.650;2024-03-25T10:58:49;10.30;99.90
22996;DHT22;11664;49.774;8.650;2024-03-25T11:01:24;10.50;99.90
22996;DHT22;11664;49.774;8.650;2024-03-25T11:03:57;11.10;99.90
22996;DHT22;11664;49.774;8.650;2024-03-25T11:06:22;10.70;99.90
22996;DHT22;11664;49.774;8.650;2024-03-25T11:08:56;10.60;99.90
22996;DHT22;11664;49.774;8.650;2024-03-25T11:11:35;11.20;99.90
22996;DHT22;11664;49.774;8.650;2024-03-25T11:14:16;11.40;99.90
22996;DHT22;11664;49.774;8.650;2024-03-25T11:16:42;11.90;99.90
22996;DHT22;11664;49.774;8.650;2024-03-25T11:19:11;11.90;99.90
22996;DHT22;11664;49.774;8.650;2024-03-25T11:21:45;11.60;99.90
22996;DHT22;11664;49.774;8.650;2024-03-25T11:24:27;11.60;99.90
22996;DHT22;11664;49.774;8.650;2024-03-25T11:26:56;12.30;99.90
22996;DHT22;11664;49.774;8.650;2024-03-25T11:29:22;12.00;99.90
22996;DHT22;11664;49.774;8.650;2024-03-25T11:32:07;12.00;99.90
22996;DHT22;11664;49.774;8.650;2024-03-25T11:34:33;11.60;99.90
22996;DHT22;11664;49.774;8.650;2024-03-25T11:37:00;11.40;99.90
22996;DHT22;11664;49.774;8.650;2024-03-25T11:39:25;12.00;99.90
22996;DHT22;11664;49.774;8.650;2024-03-25T11:41:55;12.40;99.90
22996;DHT22;11664;49.774;8.650;2024-03-25T11:44:24;12.00;99.90
22996;DHT22;11664;49.774;8.650;2024-03-25T11:47:03;12.00;98.10
22996;DHT22;11664;49.774;8.650;2024-03-25T11:49:30;12.80;99.20
22996;DHT22;11664;49.774;8.650;2024-03-25T11:51:59;12.90;98.30
22996;DHT22;11664;49.774;8.650;2024-03-25T11:54:34;13.30;99.60
22996;DHT22;11664;49.774;8.650;2024-03-25T11:57:07;13.90;99.20
22996;DHT22;11664;49.774;8.650;2024-03-25T11:59:33;14.20;97.60
22996;DHT22;11664;49.774;8.650;2024-03-25T12:02:06;13.70;96.00
22996;DHT22;11664;49.774;8.650;2024-03-25T12:04:34;14.10;97.00
22996;DHT22;11664;49.774;8.650;2024-03-25T12:07:00;14.70;96.50
22996;DHT22;11664;49.774;8.650;2024-03-25T12:09:34;14.10;94.80
22996;DHT22;11664;49.774;8.650;2024-03-25T12:12:30;13.90;93.40
22996;DHT22;11664;49.774;8.650;2024-03-25T12:15:01;13.00;96.00
22996;DHT22;11664;49.774;8.650;2024-03-25T12:17:31;13.50;93.90
22996;DHT22;11664;49.774;8.650;2024-03-25T12:20:07;13.70;92.70
22996;DHT22;11664;49.774;8.650;2024-03-25T12:22:48;14.00;93.60
22996;DHT22;11664;49.774;8.650;2024-03-25T12:25:18;14.30;92.90
22996;DHT22;11664;49.774;8.650;2024-03-25T12:27:47;13.80;94.10
22996;DHT22;11664;49.774;8.650;2024-03-25T12:30:14;14.40;95.50
22996;DHT22;11664;49.774;8.650;2024-03-25T12:32:46;14.80;92.60
22996;DHT22;11664;49.774;8.650;2024-03-25T12:35:30;14.20;89.60
22996;DHT22;11664;49.774;8.650;2024-03-25T12:38:00;13.30;91.10
22996;DHT22;11664;49.774;8.650;2024-03-25T12:40:27;13.40;89.40
22996;DHT22;11664;49.774;8.650;2024-03-25T12:42:56;13.40;90.20
22996;DHT22;11664;49.774;8.650;2024-03-25T12:45:25;13.70;91.90
22996;DHT22;11664;49.774;8.650;2024-03-25T12:47:57;14.40;91.10
22996;DHT22;11664;49.774;8.650;2024-03-25T12:50:31;14.40;89.10
22996;DHT22;11664;49.774;8.650;2024-03-25T12:53:00;14.60;91.40
22996;DHT22;11664;49.774;8.650;2024-03-25T12:55:29;12.90;87.20
22996;DHT22;11664;49.774;8.650;2024-03-25T12:58:04;13.70;91.30
22996;DHT22;11664;49.774;8.650;2024-03-25T13:00:36;14.10;87.10
22996;DHT22;11664;49.774;8.650;2024-03-25T13:03:06;14.30;91.40
22996;DHT22;11664;49.774;8.650;2024-03-25T13:05:36;13.30;88.50
22996;DHT22;11664;49.774;8.650;2024-03-25T13:08:05;13.60;88.20
22996;DHT22;11664;49.774;8.650;2024-03-25T13:10:30;13.60;89.10
22996;DHT22;11664;49.774;8.650;2024-03-25T13:13:08;14.50;89.10
22996;DHT22;11664;49.774;8.650;2024-03-25T13:15:34;15.00;89.40
22996;DHT22;11664;49.774;8.650;2024-03-25T13:17:59;15.00;86.60
22996;DHT22;11664;49.774;8.650;2024-03-25T13:20:31;15.50;88.40
22996;DHT22;11664;49.774;8.650;2024-03-25T13:22:57;15.70;87.00
22996;DHT22;11664;49.774;8.650;2024-03-25T13:25:27;16.60;87.90
22996;DHT22;11664;49.774;8.650;2024-03-25T13:27:53;17.20;83.80
22996;DHT22;11664;49.774;8.650;2024-03-25T13:30:19;17.50;79.00
22996;DHT22;11664;49.774;8.650;2024-03-25T13:32:44;17.80;78.00
22996;DHT22;11664;49.774;8.650;2024-03-25T13:35:19;17.20;77.10
22996;DHT22;11664;49.774;8.650;2024-03-25T13:37:47;16.80;76.70
22996;DHT22;11664;49.774;8.650;2024-03-25T13:40:16;16.10;75.90
22996;DHT22;11664;49.774;8.650;2024-03-25T13:42:42;17.70;75.90
22996;DHT22;11664;49.774;8.650;2024-03-25T13:45:23;19.30;70.80
22996;DHT22;11664;49.774;8.650;2024-03-25T13:47:52;17.60;69.70
22996;DHT22;11664;49.774;8.650;2024-03-25T13:50:27;19.10;70.40
22996;DHT22;11664;49.774;8.650;2024-03-25T13:52:56;20.20;65.70
22996;DHT22;11664;49.774;8.650;2024-03-25T13:55:27;19.30;65.20
22996;DHT22;11664;49.774;8.650;2024-03-25T13:57:53;18.00;62.30
22996;DHT22;11664;49.774;8.650;2024-03-25T14:00:51;19.50;65.50
22996;DHT22;11664;49.774;8.650;2024-03-25T14:03:20;21.00;63.30
22996;DHT22;11664;49.774;8.650;2024-03-25T14:05:54;21.30;58.50
22996;DHT22;11664;49.774;8.650;2024-03-25T14:08:28;21.00;57.90
22996;DHT22;11664;49.774;8.650;2024-03-25T14:11:03;21.10;59.70
22996;DHT22;11664;49.774;8.650;2024-03-25T14:13:29;20.70;57.00
22996;DHT22;11664;49.774;8.650;2024-03-25T14:15:55;20.20;57.80
22996;DHT22;11664;49.774;8.650;2024-03-25T14:18:20;19.40;57.50
22996;DHT22;11664;49.774;8.650;2024-03-25T14:20:46;19.30;58.40
22996;DHT22;11664;49.774;8.650;2024-03-25T14:23:12;19.60;60.10
22996;DHT22;11664;49.774;8.650;2024-03-25T14:25:41;20.10;59.90
22996;DHT22;11664;49.774;8.650;2024-03-25T14:28:06;20.30;58.60
22996;DHT22;11664;49.774;8.650;2024-03-25T14:30:32;20.50;57.10
22996;DHT22;11664;49.774;8.650;2024-03-25T14:33:09;19.50;59.60
22996;DHT22;11664;49.774;8.650;2024-03-25T14:35:35;20.90;58.30
22996;DHT22;11664;49.774;8.650;2024-03-25T14:38:04;20.60;57.20
22996;DHT22;11664;49.774;8.650;2024-03-25T14:40:29;20.20;56.90
22996;DHT22;11664;49.774;8.650;2024-03-25T14:42:58;20.70;58.10
22996;DHT22;11664;49.774;8.650;2024-03-25T14:45:32;20.70;59.60
22996;DHT22;11664;49.774;8.650;2024-03-25T14:48:05;20.50;58.30
22996;DHT22;11664;49.774;8.650;2024-03-25T14:53:31;20.70;56.30
22996;DHT22;11664;49.774;8.650;2024-03-25T14:56:06;21.20;55.10
22996;DHT22;11664;49.774;8.650;2024-03-25T14:58:50;20.90;55.40
22996;DHT22;11664;49.774;8.650;2024-03-25T15:01:22;20.80;54.90
22996;DHT22;11664;49.774;8.650;2024-03-25T15:03:54;21.50;54.60
22996;DHT22;11664;49.774;8.650;2024-03-25T15:06:34;21.80;54.90
22996;DHT22;11664;49.774;8.650;2024-03-25T15:09:00;21.80;52.50
22996;DHT22;11664;49.774;8.650;2024-03-25T15:11:26;21.60;51.70
22996;DHT22;11664;49.774;8.650;2024-03-25T15:13:54;18.70;55.20
22996;DHT22;11664;49.774;8.650;2024-03-25T15:16:20;19.40;56.40
22996;DHT22;11664;49.774;8.650;2024-03-25T15:18:52;19.70;54.40
22996;DHT22;11664;49.774;8.650;2024-03-25T15:21:20;18.90;53.80
22996;DHT22;11664;49.774;8.650;2024-03-25T15:23:51;18.40;57.20
22996;DHT22;11664;49.774;8.650;2024-03-25T15:26:38;19.20;55.00
22996;DHT22;11664;49.774;8.650;2024-03-25T15:29:04;20.70;54.70
22996;DHT22;11664;49.774;8.650;2024-03-25T15:31:36;21.50;54.30
22996;DHT22;11664;49.774;8.650;2024-03-25T15:34:01;21.50;53.60
22996;DHT22;11664;49.774;8.650;2024-03-25T15:36:27;21.40;54.30
22996;DHT22;11664;49.774;8.650;2024-03-25T15:38:58;21.50;53.60
22996;DHT22;11664;49.774;8.650;2024-03-25T15:41:39;22.20;51.90
22996;DHT22;11664;49.774;8.650;2024-03-25T15:44:08;20.00;50.90
22996;DHT22;11664;49.774;8.650;2024-03-25T15:46:36;21.30;53.60
22996;DHT22;11664;49.774;8.650;2024-03-25T15:49:03;20.90;52.20
22996;DHT22;11664;49.774;8.650;2024-03-25T15:51:32;18.60;54.10
22996;DHT22;11664;49.774;8.650;2024-03-25T15:54:00;20.40;55.40
22996;DHT22;11664;49.774;8.650;2024-03-25T15:56:44;21.80;52.70
22996;DHT22;11664;49.774;8.650;2024-03-25T15:59:10;21.80;49.80
22996;DHT22;11664;49.774;8.650;2024-03-25T16:01:35;19.80;52.70